Main page
METAR-TAF:

METAR-TAF

Airports :

Udine, Italy

Rivolto Air Base

latitude: 45-59N, longitude: 013-02E, elevation: 51 m

Current weather observation

The report was made 5 hours and 42 minutes ago, at 13:55 UTC
Temperature 27°C
Humidity 51%
Pressure 1018 hPa
Visibility 10 km or more
no clouds below 1500 m and no cumulonimbus

METAR: LIPI 231355Z /////KT CAVOK 27/16 Q1018 RMK SCT SCT150 VIS MIN 9999 WIND THR06 21005KT WIND THR24 22004KT BLU

Time: 21:37 (19:37 UTC)

Forecast

The report was made 11 hours and 37 minutes ago, at 08:00 UTC
Forecast valid from 23 at 09 UTC to 23 at 18 UTC
Wind 5 kt from variable directions
Visibility 10 km or more
no clouds below 1500 m and no cumulonimbus
Temporary
from 23 at 09 UTC to 12 at 31 UTC
Visibility 10 km or more
Scattered clouds at a height of 10000 ft

TAF: LIPI 230800Z 2309/2318 VRB05KT CAVOK TEMPO 2309/12318 9999 SCT100

Weather observations and forecasts of more than 4000 airports (METAR and TAF reports).

The available stations are represented by yellow and red dots on the map.

Hover mouse over dot to see the name of the station.

Then click to see weather observations and forecasts.

To change the map : click on the green buttons with a black cross to zoom in, on the green button with a dash to zoom out, or on the green arrows for adjacent maps.


METAR-TAF: